createdAt,value
2018-04-07T00:00:30.696Z,14.17
2018-04-07T00:02:59.614Z,14.14
2018-04-07T00:05:28.743Z,14.08
2018-04-07T00:07:58.030Z,14.04
2018-04-07T00:10:27.130Z,14.00
2018-04-07T00:12:56.206Z,13.95
2018-04-07T00:15:25.406Z,13.93
2018-04-07T00:17:54.435Z,13.94
2018-04-07T00:20:23.570Z,13.93
2018-04-07T00:22:52.912Z,13.89
2018-04-07T00:25:21.822Z,13.89
2018-04-07T00:27:50.753Z,13.90
2018-04-07T00:30:19.670Z,13.90
2018-04-07T00:32:48.703Z,13.87
2018-04-07T00:35:18.148Z,13.86
2018-04-07T00:37:47.112Z,13.86
2018-04-07T00:40:16.302Z,13.86
2018-04-07T00:42:45.707Z,13.85
2018-04-07T00:45:14.619Z,13.80
2018-04-07T00:50:16.973Z,13.73
2018-04-07T00:52:54.747Z,13.70
2018-04-07T00:55:23.990Z,13.69
2018-04-07T00:57:53.433Z,13.66
2018-04-07T01:00:22.561Z,13.64
2018-04-07T01:02:51.449Z,13.63
2018-04-07T01:05:20.709Z,13.61
2018-04-07T01:07:49.616Z,13.58
2018-04-07T01:10:18.520Z,13.56
2018-04-07T01:12:47.915Z,13.55
2018-04-07T01:15:16.867Z,13.51
2018-04-07T01:17:45.767Z,13.47
2018-04-07T01:20:15.112Z,13.46
2018-04-07T01:22:44.030Z,13.40
2018-04-07T01:25:12.936Z,13.36
2018-04-07T01:27:42.148Z,13.32
2018-04-07T01:30:11.033Z,13.29
2018-04-07T01:32:40.263Z,13.28
2018-04-07T01:35:09.144Z,13.29
2018-04-07T01:37:38.183Z,13.29
2018-04-07T01:40:07.190Z,13.27
2018-04-07T01:42:36.216Z,13.23
2018-04-07T01:45:05.225Z,13.18
2018-04-07T01:47:34.166Z,13.12
2018-04-07T01:50:03.722Z,13.07
2018-04-07T01:52:33.114Z,13.02
2018-04-07T01:55:02.091Z,13.01
2018-04-07T01:57:30.979Z,12.99
2018-04-07T02:00:00.496Z,12.97
2018-04-07T02:02:29.387Z,12.93
2018-04-07T02:04:58.292Z,12.93
2018-04-07T02:07:27.188Z,12.92
2018-04-07T02:09:56.124Z,12.91
2018-04-07T02:12:25.538Z,12.89
2018-04-07T02:14:54.429Z,12.81
2018-04-07T02:17:23.365Z,12.78
2018-04-07T02:19:52.319Z,12.75
2018-04-07T02:22:21.280Z,12.73
2018-04-07T02:24:50.660Z,12.71
2018-04-07T02:27:19.596Z,12.67
2018-04-07T02:29:48.495Z,12.63
2018-04-07T02:32:17.839Z,12.61
2018-04-07T02:34:46.749Z,12.57
2018-04-07T02:37:15.644Z,12.52
2018-04-07T02:39:44.834Z,12.43
2018-04-07T02:42:13.917Z,12.34
2018-04-07T02:44:42.844Z,12.28
2018-04-07T02:47:12.175Z,12.24
2018-04-07T02:49:41.059Z,12.19
2018-04-07T02:52:09.920Z,12.09
2018-04-07T02:54:39.760Z,12.07
2018-04-07T02:57:08.665Z,12.00
2018-04-07T02:59:37.672Z,11.88
2018-04-07T03:02:06.597Z,11.90
2018-04-07T03:04:35.524Z,11.89
2018-04-07T03:07:04.821Z,11.82
2018-04-07T03:09:33.728Z,11.76
2018-04-07T03:12:03.172Z,11.67
2018-04-07T03:14:32.059Z,11.65
2018-04-07T03:17:00.979Z,11.63
2018-04-07T03:19:30.332Z,11.60
2018-04-07T03:21:59.265Z,11.61
2018-04-07T03:24:28.166Z,11.60
2018-04-07T03:26:57.373Z,11.61
2018-04-07T03:29:26.247Z,11.57
2018-04-07T03:31:55.144Z,11.55
2018-04-07T03:34:24.328Z,11.54
2018-04-07T03:36:53.190Z,11.52
2018-04-07T03:39:22.104Z,11.49
2018-04-07T03:41:51.333Z,11.49
2018-04-07T03:44:20.252Z,11.47
2018-04-07T03:46:49.200Z,11.41
2018-04-07T03:49:18.487Z,11.36
2018-04-07T03:51:47.409Z,11.33
2018-04-07T03:54:16.311Z,11.33
2018-04-07T03:56:45.753Z,11.29
2018-04-07T03:59:14.662Z,11.28
2018-04-07T04:01:43.589Z,11.29
2018-04-07T04:04:12.566Z,11.25
2018-04-07T04:06:41.572Z,11.23
2018-04-07T04:09:10.873Z,11.19
2018-04-07T04:11:39.793Z,11.16
2018-04-07T04:14:08.807Z,11.18
2018-04-07T04:16:38.424Z,11.16
2018-04-07T04:19:07.361Z,11.15
2018-04-07T04:21:36.261Z,11.13
2018-04-07T04:24:06.256Z,11.11
2018-04-07T04:26:35.144Z,11.09
2018-04-07T04:29:04.284Z,11.08
2018-04-07T04:31:33.633Z,11.05
2018-04-07T04:34:03.241Z,11.03
2018-04-07T04:36:32.168Z,10.95
2018-04-07T04:39:01.659Z,10.91
2018-04-07T04:41:30.725Z,10.88
2018-04-07T04:43:59.614Z,10.86
2018-04-07T04:46:29.053Z,10.77
2018-04-07T04:48:58.041Z,10.74
2018-04-07T04:51:26.952Z,10.71
2018-04-07T04:53:56.218Z,10.69
2018-04-07T04:56:25.140Z,10.61
2018-04-07T04:58:54.056Z,10.63
2018-04-07T05:01:23.344Z,10.63
2018-04-07T05:03:52.324Z,10.57
2018-04-07T05:06:21.253Z,10.50
2018-04-07T05:08:50.883Z,10.50
2018-04-07T05:11:19.789Z,10.52
2018-04-07T05:13:48.730Z,10.49
2018-04-07T05:16:18.162Z,10.52
2018-04-07T05:18:47.666Z,10.50
2018-04-07T05:21:16.632Z,10.53
2018-04-07T05:23:46.036Z,10.55
2018-04-07T05:26:14.907Z,10.57
2018-04-07T05:28:43.761Z,10.54
2018-04-07T05:31:13.172Z,10.56
2018-04-07T05:33:42.053Z,10.59
2018-04-07T05:36:10.964Z,10.61
2018-04-07T05:38:40.365Z,10.65
2018-04-07T05:41:09.274Z,10.69
2018-04-07T05:43:38.297Z,10.74
2018-04-07T05:46:07.744Z,10.77
2018-04-07T05:48:36.819Z,10.81
2018-04-07T05:51:05.776Z,10.80
2018-04-07T05:53:35.008Z,10.87
2018-04-07T05:56:04.541Z,10.94
2018-04-07T05:58:33.512Z,11.02
2018-04-07T06:01:02.901Z,11.03
2018-04-07T06:03:31.829Z,11.00
2018-04-07T06:06:00.770Z,11.07
2018-04-07T06:08:30.097Z,11.16
2018-04-07T06:10:59.008Z,11.21
2018-04-07T06:13:27.913Z,11.36
2018-04-07T06:15:57.264Z,11.47
2018-04-07T06:18:26.276Z,11.55
2018-04-07T06:20:55.324Z,11.63
2018-04-07T06:23:24.667Z,11.72
2018-04-07T06:25:53.637Z,11.79
2018-04-07T06:28:22.584Z,11.89
2018-04-07T06:30:51.907Z,11.93
2018-04-07T06:33:20.816Z,12.06
2018-04-07T06:35:49.774Z,12.17
2018-04-07T06:38:19.259Z,12.18
2018-04-07T06:40:48.162Z,12.26
2018-04-07T06:43:17.071Z,12.25
2018-04-07T06:45:46.370Z,12.34
2018-04-07T06:48:15.289Z,12.43
2018-04-07T06:50:44.189Z,12.50
2018-04-07T06:53:13.576Z,12.57
2018-04-07T06:55:42.447Z,12.63
2018-04-07T06:58:11.348Z,12.72
2018-04-07T07:00:41.305Z,12.82
2018-04-07T07:03:10.220Z,12.92
2018-04-07T07:05:39.364Z,12.89
2018-04-07T07:08:08.801Z,12.80
2018-04-07T07:10:38.049Z,12.79
2018-04-07T07:13:07.091Z,12.76
2018-04-07T07:15:36.848Z,12.83
2018-04-07T07:18:05.893Z,12.82
2018-04-07T07:20:34.807Z,12.91
2018-04-07T07:23:04.573Z,12.90
2018-04-07T07:25:33.561Z,12.91
2018-04-07T07:28:03.496Z,13.01
2018-04-07T07:30:32.848Z,13.08
2018-04-07T07:33:02.809Z,13.09
2018-04-07T07:35:31.712Z,13.14
2018-04-07T07:38:01.934Z,13.17
2018-04-07T07:40:30.876Z,13.23
2018-04-07T07:43:00.609Z,13.22
2018-04-07T07:45:29.610Z,13.28
2018-04-07T07:47:58.548Z,13.35
2018-04-07T07:50:27.473Z,13.31
2018-04-07T07:52:56.859Z,13.31
2018-04-07T07:55:25.842Z,13.35
2018-04-07T07:57:54.776Z,13.22
2018-04-07T08:00:24.035Z,13.31
2018-04-07T08:02:53.213Z,13.19
2018-04-07T08:05:22.144Z,13.31
2018-04-07T08:07:51.496Z,13.46
2018-04-07T08:10:20.399Z,13.62
2018-04-07T08:12:49.554Z,13.81
2018-04-07T08:15:18.876Z,13.98
2018-04-07T08:17:47.814Z,14.09
2018-04-07T08:20:16.749Z,14.21
2018-04-07T08:22:46.059Z,14.34
2018-04-07T08:25:14.963Z,14.46
2018-04-07T08:27:43.900Z,14.54
2018-04-07T08:30:13.291Z,14.63
2018-04-07T08:32:42.192Z,14.68
2018-04-07T08:35:11.144Z,14.71
2018-04-07T08:37:40.475Z,14.83
2018-04-07T08:40:09.412Z,14.82
2018-04-07T08:42:38.401Z,14.84
2018-04-07T08:45:07.879Z,14.77
2018-04-07T08:47:36.915Z,14.87
2018-04-07T08:50:06.324Z,15.07
2018-04-07T08:52:35.742Z,15.08
2018-04-07T08:55:05.387Z,15.01
2018-04-07T08:57:34.312Z,15.25
2018-04-07T09:00:04.879Z,15.31
2018-04-07T09:02:33.971Z,15.58
2018-04-07T09:05:03.217Z,15.76
2018-04-07T09:07:32.523Z,15.77
2018-04-07T09:10:01.655Z,15.99
2018-04-07T09:12:30.561Z,16.17
2018-04-07T09:14:59.784Z,16.43
2018-04-07T09:17:28.723Z,16.60
2018-04-07T09:19:57.815Z,16.57
2018-04-07T09:22:27.089Z,16.66
2018-04-07T09:24:55.987Z,17.04
2018-04-07T09:27:24.917Z,17.34
2018-04-07T09:29:55.002Z,17.38
2018-04-07T09:32:23.905Z,17.61
2018-04-07T09:34:52.817Z,17.91
2018-04-07T09:37:22.116Z,18.31
2018-04-07T09:39:51.091Z,18.50
2018-04-07T09:42:20.047Z,18.75
2018-04-07T09:44:49.050Z,18.96
2018-04-07T09:47:18.097Z,19.24
2018-04-07T09:49:47.508Z,19.52
2018-04-07T09:52:16.531Z,19.55
2018-04-07T09:54:45.673Z,19.84
2018-04-07T09:57:14.728Z,20.10
2018-04-07T09:59:43.732Z,20.29
2018-04-07T10:02:17.018Z,20.30
2018-04-07T10:04:47.233Z,20.46
2018-04-07T10:07:16.252Z,20.76
2018-04-07T10:09:45.265Z,21.01
2018-04-07T10:12:14.207Z,21.35
2018-04-07T10:14:43.120Z,21.56
2018-04-07T10:17:12.046Z,21.79
2018-04-07T10:19:42.483Z,21.94
2018-04-07T10:22:11.912Z,22.09
2018-04-07T10:24:40.882Z,22.25
2018-04-07T10:27:09.863Z,22.50
2018-04-07T10:29:39.300Z,22.69
2018-04-07T10:32:08.262Z,22.92
2018-04-07T10:34:37.357Z,23.10
2018-04-07T10:37:06.888Z,23.18
2018-04-07T10:39:35.783Z,22.26
2018-04-07T10:42:05.366Z,22.28
2018-04-07T10:44:34.841Z,23.00
2018-04-07T10:47:03.943Z,23.53
2018-04-07T10:49:32.942Z,24.03
2018-04-07T10:52:03.603Z,24.43
2018-04-07T10:54:32.574Z,24.70
2018-04-07T10:57:01.678Z,24.87
2018-04-07T10:59:30.944Z,25.15
2018-04-07T11:01:59.838Z,25.38
2018-04-07T11:04:28.784Z,26.08
2018-04-07T11:06:58.224Z,26.36
2018-04-07T11:09:27.165Z,26.65
2018-04-07T11:11:56.849Z,26.94
2018-04-07T11:14:26.705Z,27.31
2018-04-07T11:16:55.814Z,27.60
2018-04-07T11:19:24.714Z,27.81
2018-04-07T11:21:54.031Z,28.11
2018-04-07T11:24:23.399Z,28.25
2018-04-07T11:26:52.348Z,28.27
2018-04-07T11:29:21.282Z,28.66
2018-04-07T11:31:50.191Z,28.86
2018-04-07T11:34:20.594Z,28.90
2018-04-07T11:36:49.525Z,29.00
2018-04-07T11:39:18.511Z,28.72
2018-04-07T11:41:47.430Z,28.97
2018-04-07T11:44:16.339Z,28.86
2018-04-07T11:46:45.550Z,28.92
2018-04-07T11:49:14.468Z,28.80
2018-04-07T11:51:43.359Z,28.96
2018-04-07T11:54:12.295Z,28.62
2018-04-07T11:56:41.304Z,29.23
2018-04-07T11:59:10.249Z,29.32
2018-04-07T12:01:39.694Z,29.29
2018-04-07T12:04:09.754Z,29.67
2018-04-07T12:06:38.665Z,29.83
2018-04-07T12:09:07.968Z,30.12
2018-04-07T12:11:36.949Z,30.42
2018-04-07T12:14:06.587Z,30.37
2018-04-07T12:16:36.026Z,30.23
2018-04-07T12:19:05.383Z,30.33
2018-04-07T12:21:34.329Z,30.69
2018-04-07T12:24:05.620Z,31.07
2018-04-07T12:26:34.615Z,31.15
2018-04-07T12:29:03.780Z,31.54
2018-04-07T12:31:33.149Z,31.23
2018-04-07T12:34:04.097Z,31.49
2018-04-07T12:36:32.997Z,31.62
2018-04-07T12:39:02.576Z,31.84
2018-04-07T12:41:31.484Z,31.70
2018-04-07T12:44:00.465Z,31.50
2018-04-07T12:46:29.384Z,31.32
2018-04-07T12:48:58.444Z,30.80
2018-04-07T12:51:27.413Z,30.73
2018-04-07T12:53:58.049Z,30.76
2018-04-07T12:56:27.112Z,31.30
2018-04-07T12:58:56.211Z,31.54
2018-04-07T13:01:25.584Z,32.21
2018-04-07T13:03:54.641Z,32.63
2018-04-07T13:06:23.619Z,32.62
2018-04-07T13:08:53.041Z,32.14
2018-04-07T13:11:22.070Z,32.09
2018-04-07T13:13:50.979Z,32.22
2018-04-07T13:16:20.226Z,32.13
2018-04-07T13:18:49.458Z,31.85
2018-04-07T13:21:18.396Z,32.07
2018-04-07T13:23:47.753Z,32.57
2018-04-07T13:26:17.345Z,31.96
2018-04-07T13:28:46.353Z,32.25
2018-04-07T13:31:15.741Z,32.64
2018-04-07T13:33:44.948Z,32.71
2018-04-07T13:36:13.884Z,33.08
2018-04-07T13:38:43.305Z,33.39
2018-04-07T13:41:12.234Z,33.33
2018-04-07T13:43:42.320Z,33.64
2018-04-07T13:46:11.723Z,33.67
2018-04-07T13:48:40.707Z,33.19
2018-04-07T13:51:09.944Z,33.36
2018-04-07T13:53:40.144Z,33.27
2018-04-07T13:56:09.088Z,33.40
2018-04-07T13:58:38.275Z,33.15
2018-04-07T14:01:09.363Z,33.15
2018-04-07T14:03:38.344Z,32.76
2018-04-07T14:06:07.240Z,32.82
2018-04-07T14:08:36.746Z,32.71
2018-04-07T14:11:05.677Z,32.74
2018-04-07T14:13:34.577Z,32.69
2018-04-07T14:16:05.236Z,32.09
2018-04-07T14:18:34.128Z,31.99
2018-04-07T14:21:03.349Z,32.46
2018-04-07T14:23:32.742Z,32.81
2018-04-07T14:26:03.416Z,32.98
2018-04-07T14:28:32.307Z,33.12
2018-04-07T14:31:01.534Z,33.11
2018-04-07T14:33:30.440Z,32.81
2018-04-07T14:35:59.333Z,32.86
2018-04-07T14:38:28.636Z,33.16
2018-04-07T14:40:57.568Z,33.39
2018-04-07T14:43:26.503Z,33.57
2018-04-07T14:45:55.895Z,33.58
2018-04-07T14:48:24.965Z,33.63
2018-04-07T14:50:53.873Z,33.73
2018-04-07T14:55:53.901Z,33.32
2018-04-07T14:58:23.105Z,32.98
2018-04-07T15:00:52.389Z,33.16
2018-04-07T15:03:21.351Z,33.05
2018-04-07T15:05:50.313Z,33.14
2018-04-07T15:08:19.556Z,33.21
2018-04-07T15:10:48.613Z,33.32
2018-04-07T15:13:17.565Z,33.14
2018-04-07T15:15:47.732Z,33.00
2018-04-07T15:18:16.665Z,33.02
2018-04-07T15:20:45.598Z,33.07
2018-04-07T15:23:14.970Z,33.17
2018-04-07T15:25:43.885Z,33.57
2018-04-07T15:28:12.804Z,33.46
2018-04-07T15:30:42.358Z,33.46
2018-04-07T15:33:11.309Z,33.35
2018-04-07T15:35:40.901Z,33.36
2018-04-07T15:38:10.389Z,33.23
2018-04-07T15:40:39.673Z,32.99
2018-04-07T15:43:08.718Z,33.13
2018-04-07T15:45:38.144Z,32.79
2018-04-07T15:48:08.100Z,32.48
2018-04-07T15:50:37.206Z,32.60
2018-04-07T15:53:06.636Z,32.49
2018-04-07T15:55:35.521Z,32.40
2018-04-07T15:58:05.130Z,32.00
2018-04-07T16:00:34.648Z,32.12
2018-04-07T16:03:04.012Z,32.02
2018-04-07T16:05:33.197Z,31.77
2018-04-07T16:08:05.666Z,31.28
2018-04-07T16:10:35.218Z,30.95
2018-04-07T16:13:04.565Z,30.93
2018-04-07T16:15:33.590Z,30.39
2018-04-07T16:18:03.364Z,30.53
2018-04-07T16:20:32.482Z,30.33
2018-04-07T16:23:04.134Z,30.43
2018-04-07T16:25:33.880Z,30.41
2018-04-07T16:28:03.677Z,30.30
2018-04-07T16:30:33.128Z,30.36
2018-04-07T16:33:03.858Z,30.34
2018-04-07T16:35:32.932Z,30.29
2018-04-07T16:38:03.084Z,30.00
2018-04-07T16:40:39.268Z,29.81
2018-04-07T16:43:08.317Z,29.83
2018-04-07T16:45:37.392Z,29.86
2018-04-07T16:48:07.269Z,29.75
2018-04-07T16:50:36.608Z,29.49
2018-04-07T16:53:05.721Z,29.32
2018-04-07T16:55:34.859Z,28.96
2018-04-07T16:58:05.112Z,28.72
2018-04-07T17:00:34.102Z,28.62
2018-04-07T17:03:04.369Z,28.48
2018-04-07T17:05:33.693Z,28.30
2018-04-07T17:08:04.681Z,28.20
2018-04-07T17:10:34.671Z,27.88
2018-04-07T17:13:04.109Z,27.67
2018-04-07T17:15:33.131Z,27.52
2018-04-07T17:18:04.782Z,27.31
2018-04-07T17:20:39.186Z,27.20
2018-04-07T17:23:08.824Z,27.16
2018-04-07T17:25:37.919Z,27.09
2018-04-07T17:28:06.833Z,26.98
2018-04-07T17:30:35.812Z,26.89
2018-04-07T17:33:05.059Z,26.71
2018-04-07T17:35:34.022Z,26.51
2018-04-07T17:38:04.991Z,26.37
2018-04-07T17:40:33.967Z,26.33
2018-04-07T17:43:03.157Z,26.26
2018-04-07T17:45:32.460Z,26.22
2018-04-07T17:48:01.409Z,26.13
2018-04-07T17:50:30.475Z,26.05
2018-04-07T17:52:59.697Z,25.93
2018-04-07T17:55:28.644Z,25.85
2018-04-07T17:57:58.175Z,25.78
2018-04-07T18:00:27.814Z,25.71
2018-04-07T18:02:56.732Z,25.64
2018-04-07T18:05:25.678Z,25.59
2018-04-07T18:07:56.028Z,25.49
2018-04-07T18:10:24.982Z,25.44
2018-04-07T18:12:54.048Z,25.36
2018-04-07T18:15:23.027Z,25.27
2018-04-07T18:17:53.417Z,25.17
2018-04-07T18:20:22.349Z,25.09
2018-04-07T18:22:51.597Z,25.02
2018-04-07T18:25:20.528Z,24.89
2018-04-07T18:27:49.436Z,24.78
2018-04-07T18:30:18.461Z,24.66
2018-04-07T18:32:47.498Z,24.54
2018-04-07T18:35:16.399Z,24.44
2018-04-07T18:37:45.726Z,24.32
2018-04-07T18:40:14.632Z,24.19
2018-04-07T18:42:43.900Z,24.11
2018-04-07T18:45:12.825Z,24.04
2018-04-07T18:47:42.530Z,23.99
2018-04-07T18:50:11.495Z,23.95
2018-04-07T18:52:41.047Z,23.89
2018-04-07T18:55:09.954Z,23.80
2018-04-07T18:57:39.075Z,23.76
2018-04-07T19:00:08.009Z,23.73
2018-04-07T19:02:36.908Z,23.67
2018-04-07T19:05:05.821Z,23.59
2018-04-07T19:07:35.562Z,23.52
2018-04-07T19:10:05.908Z,23.46
2018-04-07T19:12:34.824Z,23.39
2018-04-07T19:15:04.508Z,23.34
2018-04-07T19:17:33.443Z,23.25
2018-04-07T19:20:03.375Z,23.19
2018-04-07T19:22:32.564Z,23.18
2018-04-07T19:25:01.890Z,23.14
2018-04-07T19:27:30.793Z,23.07
2018-04-07T19:30:00.177Z,23.02
2018-04-07T19:32:29.141Z,22.99
2018-04-07T19:34:58.540Z,22.94
2018-04-07T19:37:27.533Z,22.88
2018-04-07T19:39:56.480Z,22.86
2018-04-07T19:42:25.406Z,22.80
2018-04-07T19:44:54.758Z,22.73
2018-04-07T19:47:23.706Z,22.68
2018-04-07T19:49:52.658Z,22.64
2018-04-07T19:52:22.178Z,22.59
2018-04-07T19:54:51.176Z,22.53
2018-04-07T19:57:20.195Z,22.47
2018-04-07T19:59:50.369Z,22.39
2018-04-07T20:02:19.419Z,22.30
2018-04-07T20:04:49.274Z,22.24
2018-04-07T20:07:18.601Z,22.19
2018-04-07T20:09:47.612Z,22.13
2018-04-07T20:12:16.576Z,22.07
2018-04-07T20:14:45.998Z,22.00
2018-04-07T20:17:15.027Z,21.93
2018-04-07T20:19:44.127Z,21.87
2018-04-07T20:22:14.267Z,21.81
2018-04-07T20:24:43.287Z,21.74
2018-04-07T20:27:12.238Z,21.69
2018-04-07T20:29:41.624Z,21.62
2018-04-07T20:32:10.554Z,21.57
2018-04-07T20:34:40.891Z,21.53
2018-04-07T20:37:10.160Z,21.46
2018-04-07T20:39:39.319Z,21.40
2018-04-07T20:42:17.307Z,21.35
2018-04-07T20:44:46.652Z,21.27
2018-04-07T20:49:55.212Z,21.16
2018-04-07T20:52:24.214Z,21.11
2018-04-07T20:54:53.173Z,21.06
2018-04-07T20:57:22.196Z,21.03
2018-04-07T20:59:51.151Z,21.00
2018-04-07T21:02:20.162Z,20.96
2018-04-07T21:04:50.408Z,20.93
2018-04-07T21:07:19.353Z,20.93
2018-04-07T21:09:48.317Z,20.92
2018-04-07T21:12:17.760Z,20.91
2018-04-07T21:14:46.625Z,20.89
2018-04-07T21:17:15.520Z,20.87
2018-04-07T21:19:44.833Z,20.84
2018-04-07T21:22:13.774Z,20.84
2018-04-07T21:24:43.583Z,20.80
2018-04-07T21:27:12.967Z,20.77
2018-04-07T21:29:43.047Z,20.73
2018-04-07T21:32:12.059Z,20.71
2018-04-07T21:34:41.571Z,20.66
2018-04-07T21:37:10.489Z,20.61
2018-04-07T21:39:40.321Z,20.58
2018-04-07T21:42:09.501Z,20.54
2018-04-07T21:44:38.700Z,20.51
2018-04-07T21:47:07.945Z,20.45
2018-04-07T21:49:36.868Z,20.40
2018-04-07T21:52:05.805Z,20.35
2018-04-07T21:54:34.780Z,20.34
2018-04-07T21:57:03.708Z,20.28
2018-04-07T21:59:33.092Z,20.23
2018-04-07T22:02:03.657Z,20.19
2018-04-07T22:04:32.678Z,20.16
2018-04-07T22:07:02.066Z,20.10
2018-04-07T22:09:31.014Z,20.04
2018-04-07T22:12:00.059Z,19.95
2018-04-07T22:14:29.326Z,19.88
2018-04-07T22:16:58.296Z,19.81
2018-04-07T22:19:27.358Z,19.75
2018-04-07T22:21:56.686Z,19.69
2018-04-07T22:24:26.250Z,19.63
2018-04-07T22:26:55.180Z,19.57
2018-04-07T22:29:24.662Z,19.52
2018-04-07T22:31:53.663Z,19.49
2018-04-07T22:34:22.569Z,19.49
2018-04-07T22:36:51.559Z,19.48
2018-04-07T22:39:20.577Z,19.44
2018-04-07T22:41:51.294Z,19.38
2018-04-07T22:44:20.587Z,19.35
2018-04-07T22:46:49.508Z,19.31
2018-04-07T22:49:18.412Z,19.27
2018-04-07T22:51:48.610Z,19.23
2018-04-07T22:56:52.636Z,19.20
2018-04-07T22:59:22.221Z,19.23
2018-04-07T23:01:51.160Z,19.24
2018-04-07T23:04:20.156Z,19.23
2018-04-07T23:06:49.419Z,19.20
2018-04-07T23:09:18.388Z,19.17
2018-04-07T23:11:47.462Z,19.10
2018-04-07T23:14:16.704Z,19.03
2018-04-07T23:16:45.639Z,18.96
2018-04-07T23:19:14.524Z,18.92
2018-04-07T23:21:43.895Z,18.88
2018-04-07T23:24:12.816Z,18.86
2018-04-07T23:26:41.745Z,18.82
2018-04-07T23:29:10.928Z,18.81
2018-04-07T23:31:39.976Z,18.79
2018-04-07T23:34:08.885Z,18.78
2018-04-07T23:36:38.348Z,18.74
2018-04-07T23:39:07.292Z,18.68
2018-04-07T23:41:36.320Z,18.69
2018-04-07T23:44:06.667Z,18.69
2018-04-07T23:46:35.627Z,18.70
2018-04-07T23:49:04.565Z,18.64
2018-04-07T23:51:33.918Z,18.51
2018-04-07T23:54:04.738Z,18.46
2018-04-07T23:56:33.632Z,18.38
2018-04-07T23:59:04.593Z,18.30
